Time;durP1;ratioP1;P1;durP2;ratioP2;P2;SDS_P1;SDS_P2;PMS_P1;PMS_P2;Temp;Humidity;BMP_temperature;BMP_pressure;BME280_temperature;BME280_humidity;BME280_pressure;Samples;Min_cycle;Max_cycle;Signal;HPM_P1;HPM_P2
2021/03/26 00:01:58;;;;;;;12.52;6.68;;;;;;;5.68;58.96;97152.47;5010121;28;20072;-66
2021/03/26 00:04:24;;;;;;;;;;;;;;;5.57;59.23;97147.38;5013399;28;20045;-67
2021/03/26 00:06:51;;;;;;;16.92;6.93;;;;;;;5.53;59.68;97147.75;5009409;28;19965;-66
2021/03/26 00:09:19;;;;;;;;;;;;;;;5.44;59.79;97141.56;5010473;28;20038;-66
2021/03/26 00:11:47;;;;;;;14.95;7.78;;;;;;;4.74;63.54;97137.69;5013434;28;19925;-66
2021/03/26 00:14:14;;;;;;;15.80;7.97;;;;;;;4.53;63.52;97148.78;5010613;28;20053;-66
2021/03/26 00:16:41;;;;;;;13.77;6.53;;;;;;;4.60;63.20;97149.09;5010384;28;20399;-66
2021/03/26 00:19:07;;;;;;;13.65;7.05;;;;;;;5.09;61.04;97140.06;5012854;28;20453;-66
2021/03/26 00:21:33;;;;;;;10.68;5.68;;;;;;;5.04;60.13;97148.19;5007762;28;20760;-66
2021/03/26 00:24:00;;;;;;;13.60;7.25;;;;;;;4.52;63.94;97152.28;5011341;28;20042;-66
2021/03/26 00:26:26;;;;;;;16.10;6.85;;;;;;;4.14;65.56;97161.19;5012211;28;20045;-66
2021/03/26 00:29:13;;;;;;;11.30;6.10;;;;;;;4.98;60.91;97150.44;5009797;28;20042;-66
2021/03/26 00:31:42;;;;;;;10.63;5.45;;;;;;;5.06;60.14;97142.91;5011388;28;20057;-66
2021/03/26 00:34:09;;;;;;;10.32;5.70;;;;;;;4.68;61.51;97147.56;5011444;28;20050;-66
2021/03/26 00:36:36;;;;;;;10.63;5.50;;;;;;;4.61;62.15;97145.56;5010266;28;20060;-66
2021/03/26 00:39:05;;;;;;;9.70;5.68;;;;;;;4.89;60.80;97141.66;5012132;28;20048;-66
2021/03/26 00:41:32;;;;;;;10.30;5.03;;;;;;;5.00;59.63;97143.41;5006007;28;20485;-66
2021/03/26 00:43:59;;;;;;;10.30;5.40;;;;;;;4.94;60.23;97149.03;5010619;28;20042;-66
2021/03/26 00:46:25;;;;;;;10.27;5.60;;;;;;;4.95;60.48;97148.09;5009557;28;20046;-66
2021/03/26 00:48:52;;;;;;;15.07;5.18;;;;;;;4.80;61.25;97157.84;5010302;28;20666;-66
2021/03/26 00:51:19;;;;;;;10.32;5.50;;;;;;;5.10;59.85;97158.03;5011600;28;20054;-66
2021/03/26 00:53:46;;;;;;;8.98;4.97;;;;;;;5.17;59.12;97160.94;5009658;28;20402;-66
2021/03/26 00:56:12;;;;;;;7.32;4.85;;;;;;;5.08;59.41;97157.31;5010720;28;20403;-66
2021/03/26 00:58:38;;;;;;;8.50;5.10;;;;;;;5.02;59.66;97151.84;5011183;28;20099;-66
2021/03/26 01:01:06;;;;;;;8.65;5.40;;;;;;;4.98;59.45;97148.66;5010939;28;20045;-66
2021/03/26 01:03:33;;;;;;;8.10;4.85;;;;;;;5.13;58.44;97153.56;5010476;28;20049;-66
2021/03/26 01:06:03;;;;;;;9.53;5.00;;;;;;;5.10;58.40;97152.03;5010021;28;20052;-66
2021/03/26 01:08:30;;;;;;;12.45;5.35;;;;;;;4.98;59.01;97153.81;5012754;28;20140;-66
2021/03/26 01:11:14;;;;;;;8.43;5.18;;;;;;;4.97;59.03;97144.44;5007174;28;20073;-66
2021/03/26 01:13:42;;;;;;;11.13;4.78;;;;;;;4.92;58.83;97144.00;5011005;28;20109;-66
2021/03/26 01:16:10;;;;;;;9.13;5.30;;;;;;;4.89;59.01;97146.81;5006227;28;20062;-66
2021/03/26 01:18:41;;;;;;;9.55;5.03;;;;;;;4.86;59.33;97150.44;5012308;28;20046;-66
2021/03/26 01:21:12;;;;;;;6.85;4.63;;;;;;;4.85;59.63;97153.16;5007382;28;20448;-66
2021/03/26 01:23:43;;;;;;;8.68;4.45;;;;;;;4.89;59.48;97144.25;5011291;28;20081;-66
2021/03/26 01:26:09;;;;;;;8.90;4.90;;;;;;;4.98;58.86;97153.03;5010004;28;20064;-66
2021/03/26 01:28:58;;;;;;;;;;;;;;;4.72;59.91;97147.31;5011547;28;21782;-65
2021/03/26 01:31:28;;;;;;;7.50;4.97;;;;;;;4.53;61.00;97153.94;5011691;28;19932;-66
2021/03/26 01:34:02;;;;;;;11.05;5.10;;;;;;;4.66;60.42;97144.28;5021041;28;20054;-66
2021/03/26 01:36:32;;;;;;;11.20;4.53;;;;;;;4.55;60.81;97146.88;5012528;28;20053;-66
2021/03/26 01:39:00;;;;;;;8.55;4.55;;;;;;;4.48;61.09;97141.38;5011373;28;20096;-66
2021/03/26 01:41:34;;;;;;;9.63;5.30;;;;;;;4.53;61.21;97137.63;5010976;28;20092;-66
2021/03/26 01:44:05;;;;;;;8.77;5.47;;;;;;;4.52;61.04;97141.94;5007690;28;20058;-66
2021/03/26 01:46:32;;;;;;;10.60;5.13;;;;;;;4.37;61.60;97145.72;5013387;28;20049;-66
2021/03/26 01:49:02;;;;;;;9.60;4.63;;;;;;;4.42;61.84;97138.44;5013246;28;20389;-66
2021/03/26 01:51:33;;;;;;;10.18;5.10;;;;;;;4.24;62.27;97149.25;5030848;28;20053;-66
2021/03/26 01:54:04;;;;;;;9.73;5.30;;;;;;;4.32;62.14;97142.66;5012172;28;20152;-66
2021/03/26 01:56:30;;;;;;;10.60;5.65;;;;;;;4.34;61.79;97146.78;4995249;28;20682;-66
2021/03/26 01:59:20;;;;;;;10.40;5.40;;;;;;;4.47;61.18;97149.25;5010525;28;20049;-66
2021/03/26 02:01:52;;;;;;;10.40;5.37;;;;;;;4.44;61.22;97144.31;5014181;28;20057;-66
2021/03/26 02:04:33;;;;;;;14.07;5.28;;;;;;;4.48;61.08;97153.44;5029880;28;20310;-66
2021/03/26 02:07:20;;;;;;;9.27;5.40;;;;;;;4.40;61.29;97148.06;5011652;28;20390;-66
2021/03/26 02:09:47;;;;;;;8.95;5.28;;;;;;;4.28;61.71;97144.69;5012049;28;20125;-66
2021/03/26 02:12:25;;;;;;;10.93;5.25;;;;;;;4.25;61.38;97135.44;5014932;28;20045;-66
2021/03/26 02:14:58;;;;;;;12.20;5.53;;;;;;;4.37;61.43;97143.16;5015487;28;20058;-65
2021/03/26 02:17:31;;;;;;;17.55;5.72;;;;;;;4.24;61.72;97149.25;5011935;28;21295;-66
2021/03/26 02:20:21;;;;;;;11.73;5.57;;;;;;;4.28;61.47;97148.06;5011484;28;20061;-66
2021/03/26 02:22:47;;;;;;;15.13;5.90;;;;;;;4.12;62.17;97147.59;5015898;28;20062;-66
2021/03/26 02:25:18;;;;;;;10.75;5.32;;;;;;;4.04;62.45;97148.19;5005632;28;20048;-66
2021/03/26 02:27:45;;;;;;;12.43;5.20;;;;;;;4.13;62.35;97149.25;5013590;28;20054;-66
2021/03/26 02:30:23;;;;;;;8.73;4.82;;;;;;;4.24;61.89;97146.66;5014204;28;20050;-66
2021/03/26 02:32:50;;;;;;;;;;;;;;;4.18;62.23;97148.88;5029829;28;20054;-66
2021/03/26 02:35:36;;;;;;;14.80;5.22;;;;;;;4.13;62.51;97154.41;5013782;28;19933;-66
2021/03/26 02:38:28;;;;;;;13.68;4.40;;;;;;;3.98;62.86;97151.22;5011170;28;20042;-66
2021/03/26 02:41:13;;;;;;;8.68;5.15;;;;;;;4.04;62.94;97157.66;5014691;28;20057;-66
2021/03/26 02:43:55;;;;;;;10.32;4.72;;;;;;;4.00;62.99;97158.81;5028850;28;20130;-66
2021/03/26 02:46:33;;;;;;;11.70;4.95;;;;;;;3.97;63.25;97169.38;5011379;28;20125;-66
2021/03/26 02:49:20;;;;;;;10.07;4.57;;;;;;;4.02;62.89;97165.53;5015138;28;20387;-66
2021/03/26 02:52:21;;;;;;;9.85;4.78;;;;;;;3.91;63.32;97174.97;5029593;28;20068;-66
2021/03/26 02:55:02;;;;;;;9.93;5.00;;;;;;;3.81;63.86;97164.53;5015927;28;20140;-66
2021/03/26 02:57:34;;;;;;;11.10;5.30;;;;;;;3.75;64.35;97178.69;5013200;28;20056;-66
2021/03/26 03:00:15;;;;;;;12.85;5.80;;;;;;;3.79;64.08;97172.38;5016294;28;20030;-66
2021/03/26 03:02:43;;;;;;;8.30;5.25;;;;;;;3.82;63.83;97177.28;5014930;28;20426;-66
2021/03/26 03:05:42;;;;;;;10.05;5.35;;;;;;;3.77;63.97;97178.59;5012610;28;20083;-66
2021/03/26 03:08:19;;;;;;;10.63;4.95;;;;;;;3.78;63.70;97183.59;5010760;28;20123;-66
2021/03/26 03:11:03;;;;;;;7.82;4.47;;;;;;;3.74;63.97;97181.38;5012260;28;20074;-66
2021/03/26 03:13:59;;;;;;;10.30;5.25;;;;;;;3.56;64.59;97183.56;5014519;28;20375;-66
2021/03/26 03:16:39;;;;;;;9.90;4.72;;;;;;;3.70;64.28;97179.97;5014802;28;20064;-66
2021/03/26 03:19:35;;;;;;;10.45;5.63;;;;;;;3.58;64.57;97185.09;5009920;28;20065;-66
2021/03/26 03:22:16;;;;;;;11.23;5.40;;;;;;;3.59;64.52;97173.03;5013232;28;20367;-66
2021/03/26 03:24:45;;;;;;;11.52;5.22;;;;;;;3.52;64.80;97180.38;5008630;28;20053;-65
2021/03/26 03:27:25;;;;;;;10.05;5.63;;;;;;;3.32;65.73;97186.13;5013080;28;20050;-66
2021/03/26 03:30:02;;;;;;;7.75;4.78;;;;;;;3.36;65.45;97178.09;5010817;28;21357;-66
2021/03/26 03:33:03;;;;;;;9.52;5.10;;;;;;;3.44;65.27;97180.94;5012849;28;20529;-66
2021/03/26 03:35:56;;;;;;;9.05;4.95;;;;;;;3.44;65.03;97180.13;5017655;28;20046;-66
2021/03/26 03:38:47;;;;;;;8.43;4.88;;;;;;;3.49;64.99;97178.00;5013039;28;20100;-66
2021/03/26 03:41:23;;;;;;;10.85;4.97;;;;;;;3.45;65.09;97176.59;5015545;28;20049;-66
2021/03/26 03:43:57;;;;;;;8.50;4.47;;;;;;;3.51;64.87;97178.72;5012036;28;20076;-65
2021/03/26 03:46:44;;;;;;;10.27;4.70;;;;;;;3.45;64.99;97179.16;5007586;28;20517;-66
2021/03/26 03:50:06;;;;;;;10.90;5.05;;;;;;;3.40;65.16;97174.34;5014945;28;20041;-65
2021/03/26 03:52:44;;;;;;;7.32;4.47;;;;;;;3.37;65.12;97177.16;5026953;28;21236;-66
2021/03/26 03:55:24;;;;;;;9.20;4.38;;;;;;;3.41;65.00;97175.19;5007323;28;20081;-66
2021/03/26 03:58:15;;;;;;;9.88;4.97;;;;;;;3.46;64.84;97180.81;5016088;28;20053;-66
2021/03/26 04:00:51;;;;;;;12.75;5.05;;;;;;;3.30;65.60;97180.28;5010660;28;20054;-66
2021/03/26 04:03:38;;;;;;;9.05;4.93;;;;;;;3.20;65.85;97180.97;5013291;28;20056;-66
2021/03/26 04:06:15;;;;;;;9.80;5.68;;;;;;;3.37;65.47;97173.78;5024447;28;20057;-67
2021/03/26 04:08:46;;;;;;;10.27;5.85;;;;;;;3.29;65.72;97176.09;5013071;28;20046;-66
2021/03/26 04:11:48;;;;;;;12.27;6.32;;;;;;;3.23;66.00;97180.72;5009641;28;20545;-66
2021/03/26 04:14:29;;;;;;;13.60;6.13;;;;;;;3.24;66.03;97186.72;4979362;28;20054;-66
2021/03/26 04:17:02;;;;;;;12.82;5.60;;;;;;;3.10;66.50;97176.59;5014492;28;20513;-66
2021/03/26 04:19:33;;;;;;;36.17;6.10;;;;;;;3.15;66.62;97179.63;5026345;28;20049;-66
2021/03/26 04:22:07;;;;;;;13.18;4.95;;;;;;;3.06;66.71;97192.22;5015012;28;20054;-66
2021/03/26 04:25:11;;;;;;;7.90;4.40;;;;;;;3.05;66.81;97195.72;5009503;28;20132;-66
2021/03/26 04:28:09;;;;;;;8.70;5.68;;;;;;;2.91;67.25;97187.34;5009971;28;20052;-66
2021/03/26 04:31:05;;;;;;;7.85;4.28;;;;;;;2.89;67.54;97187.44;5011609;28;20062;-66
2021/03/26 04:33:57;;;;;;;8.45;4.40;;;;;;;3.06;66.88;97191.41;5012430;28;20141;-66
2021/03/26 04:36:30;;;;;;;9.07;4.65;;;;;;;2.91;67.55;97188.16;5010747;28;20050;-66
2021/03/26 04:39:31;;;;;;;9.13;5.32;;;;;;;2.94;67.59;97187.97;5012584;28;20049;-66
2021/03/26 04:42:09;;;;;;;;;;;;;;;3.00;67.35;97187.50;5011003;28;20065;-66
2021/03/26 04:45:02;;;;;;;10.63;5.20;;;;;;;3.10;66.86;97192.00;5010778;28;19933;-66
2021/03/26 04:47:53;;;;;;;14.10;5.95;;;;;;;3.00;67.11;97184.13;5003595;28;20038;-66
2021/03/26 04:50:54;;;;;;;10.20;5.78;;;;;;;3.04;67.02;97188.13;5010572;28;20061;-66
2021/03/26 04:53:29;;;;;;;12.82;6.53;;;;;;;2.87;67.70;97184.16;5011629;28;20057;-66
2021/03/26 04:56:06;;;;;;;14.10;6.43;;;;;;;2.69;68.41;97185.44;5024955;28;20054;-66
2021/03/26 04:58:59;;;;;;;9.40;5.50;;;;;;;2.76;68.18;97176.41;5002356;28;20061;-66
2021/03/26 05:02:03;;;;;;;11.90;6.05;;;;;;;2.63;68.55;97173.84;5007480;28;20064;-66
2021/03/26 05:04:35;;;;;;;7.80;4.95;;;;;;;2.71;68.35;97175.88;5006990;28;20049;-66
2021/03/26 05:07:06;;;;;;;10.00;5.18;;;;;;;2.82;68.02;97169.06;5028601;28;20045;-66
2021/03/26 05:09:37;;;;;;;12.45;5.65;;;;;;;2.84;67.79;97177.50;5009861;28;20078;-66
2021/03/26 05:12:24;;;;;;;11.02;5.30;;;;;;;2.92;67.40;97179.53;5009405;28;20053;-66
2021/03/26 05:15:00;;;;;;;12.85;5.72;;;;;;;2.82;67.87;97179.34;5011903;28;20666;-66
2021/03/26 05:17:39;;;;;;;15.63;5.30;;;;;;;2.99;67.37;97175.59;5011295;28;20562;-66
2021/03/26 05:20:48;;;;;;;9.60;5.47;;;;;;;3.10;66.62;97182.53;5012008;28;20049;-66
2021/03/26 05:23:47;;;;;;;7.30;4.97;;;;;;;3.09;66.45;97180.06;4992142;28;20057;-66
2021/03/26 05:26:32;;;;;;;10.25;4.78;;;;;;;3.21;65.71;97169.72;5014840;28;20058;-66
2021/03/26 05:29:16;;;;;;;7.85;4.65;;;;;;;3.24;65.77;97174.66;5016094;28;20627;-66
2021/03/26 05:31:50;;;;;;;12.85;5.00;;;;;;;3.30;65.55;97180.28;5013638;28;20058;-66
2021/03/26 05:34:56;;;;;;;10.02;4.72;;;;;;;3.26;65.69;97183.09;5017810;28;20048;-66
2021/03/26 05:37:32;;;;;;;9.98;4.70;;;;;;;3.21;65.94;97176.63;5014855;28;20116;-66
2021/03/26 05:40:51;;;;;;;13.35;5.28;;;;;;;3.28;65.85;97184.72;5008815;28;20049;-66
2021/03/26 05:44:00;;;;;;;9.27;4.82;;;;;;;3.39;65.72;97185.59;5014442;28;21433;-67
2021/03/26 05:47:00;;;;;;;9.63;5.22;;;;;;;3.36;66.03;97177.28;5010814;28;20049;-65
2021/03/26 05:49:57;;;;;;;8.70;5.15;;;;;;;3.53;65.85;97181.19;5030416;28;20157;-65
2021/03/26 05:52:42;;;;;;;17.67;5.80;;;;;;;3.42;65.87;97172.50;5012287;28;20100;-65
2021/03/26 05:55:10;;;;;;;11.40;5.63;;;;;;;3.67;65.46;97173.28;5009055;28;20050;-65
2021/03/26 05:57:52;;;;;;;9.57;5.07;;;;;;;3.81;65.01;97183.41;5015618;28;20596;-65
2021/03/26 06:00:38;;;;;;;15.15;5.97;;;;;;;3.97;64.26;97182.25;5014247;28;20405;-65
2021/03/26 06:03:58;;;;;;;13.63;6.15;;;;;;;4.07;63.98;97178.84;5013997;28;20131;-65
2021/03/26 06:07:06;;;;;;;22.50;6.65;;;;;;;4.22;63.49;97192.34;5009979;28;20057;-65
2021/03/26 06:10:09;;;;;;;14.73;6.22;;;;;;;4.39;63.12;97191.06;5004180;28;20425;-66
2021/03/26 06:13:32;;;;;;;10.85;5.72;;;;;;;4.36;65.15;97187.88;5008869;28;20072;-67
2021/03/26 06:16:39;;;;;;;11.32;6.25;;;;;;;4.08;67.38;97195.97;5008377;28;20111;-66
2021/03/26 06:19:51;;;;;;;11.07;6.20;;;;;;;4.18;66.91;97197.84;5008859;28;20068;-66
2021/03/26 06:23:30;;;;;;;14.60;6.22;;;;;;;4.60;66.36;97196.34;5010312;28;20073;-67
2021/03/26 06:26:39;;;;;;;12.05;6.70;;;;;;;4.78;66.46;97195.84;5007479;28;20049;-68
2021/03/26 06:29:19;;;;;;;13.38;6.70;;;;;;;4.96;65.88;97197.00;5012568;28;20069;-66
2021/03/26 06:32:24;;;;;;;20.10;6.30;;;;;;;4.99;66.41;97199.31;5008677;28;20045;-62
2021/03/26 06:35:18;;;;;;;12.35;6.90;;;;;;;5.16;66.77;97203.16;5010195;28;20047;-67
2021/03/26 06:38:12;;;;;;;12.13;7.13;;;;;;;5.19;65.57;97197.75;5009517;28;20048;-68
2021/03/26 06:40:50;;;;;;;13.65;6.18;;;;;;;5.61;62.60;97200.44;5028243;28;20061;-65
2021/03/26 06:43:46;;;;;;;9.55;5.57;;;;;;;5.44;62.34;97203.53;5015689;28;20045;-64
2021/03/26 06:46:23;;;;;;;9.63;5.15;;;;;;;5.90;61.23;97192.88;5010373;28;20057;-69
2021/03/26 06:49:05;;;;;;;7.63;5.10;;;;;;;6.30;60.13;97199.91;5011687;28;20045;-64
2021/03/26 06:51:50;;;;;;;15.18;6.68;;;;;;;6.23;60.42;97196.22;5016846;28;20607;-64
2021/03/26 06:54:40;;;;;;;12.50;6.97;;;;;;;6.38;61.04;97201.88;5007154;28;20041;-63
2021/03/26 06:57:21;;;;;;;13.00;6.43;;;;;;;6.52;60.14;97195.53;5011507;28;20485;-63
2021/03/26 07:00:18;;;;;;;9.20;5.03;;;;;;;6.70;57.72;97193.94;5012427;28;20050;-63
2021/03/26 07:03:08;;;;;;;10.55;4.40;;;;;;;6.78;57.19;97193.31;5012950;28;20129;-63
2021/03/26 07:05:50;;;;;;;10.80;4.47;;;;;;;6.93;55.22;97191.97;5009394;28;20042;-63
2021/03/26 07:08:49;;;;;;;9.13;4.20;;;;;;;7.08;55.06;97195.00;5010877;28;20049;-63
2021/03/26 07:11:31;;;;;;;22.50;6.78;;;;;;;7.46;54.29;97188.22;5014571;28;20045;-63
2021/03/26 07:14:18;;;;;;;15.93;6.13;;;;;;;7.37;54.77;97198.59;5010215;28;20041;-63
2021/03/26 07:17:14;;;;;;;21.20;6.70;;;;;;;7.47;55.07;97195.06;5011606;28;20041;-63
2021/03/26 07:20:07;;;;;;;17.50;6.03;;;;;;;7.72;53.61;97198.84;5014891;28;20570;-63
2021/03/26 07:22:45;;;;;;;25.98;5.30;;;;;;;7.92;53.57;97199.66;5011063;28;20088;-64
2021/03/26 07:25:32;;;;;;;16.90;5.20;;;;;;;8.09;52.50;97205.09;5009643;28;20053;-62
2021/03/26 07:28:30;;;;;;;11.35;4.72;;;;;;;8.65;53.42;97206.84;5015915;28;20057;-63
2021/03/26 07:31:13;;;;;;;10.68;5.40;;;;;;;7.98;53.01;97200.03;5013637;28;20038;-62
2021/03/26 07:33:51;;;;;;;14.13;5.50;;;;;;;8.22;52.86;97199.59;5012965;28;20042;-63
2021/03/26 07:36:31;;;;;;;;;;;;;;;8.17;52.97;97200.03;5014339;28;20417;-62
2021/03/26 07:39:22;;;;;;;10.50;4.40;;;;;;;8.38;51.59;97196.41;5014883;28;19922;-61
2021/03/26 07:42:13;;;;;;;6.60;3.90;;;;;;;8.54;50.90;97189.69;5012703;28;20164;-64
2021/03/26 07:44:53;;;;;;;9.05;3.90;;;;;;;8.98;50.00;97191.66;5026791;28;20041;-64
2021/03/26 07:47:34;;;;;;;12.30;4.18;;;;;;;9.31;48.91;97192.00;5009318;28;20044;-63
2021/03/26 07:50:32;;;;;;;8.00;4.45;;;;;;;9.69;48.58;97197.84;5010766;28;20053;-63
2021/03/26 07:53:07;;;;;;;11.85;4.75;;;;;;;10.01;47.61;97193.88;5010439;28;20042;-62
2021/03/26 07:55:49;;;;;;;10.00;5.30;;;;;;;9.98;47.40;97190.59;5010411;28;20041;-65
2021/03/26 07:58:36;;;;;;;11.88;5.03;;;;;;;10.49;46.27;97192.56;5009739;28;20045;-63
2021/03/26 08:01:39;;;;;;;11.02;5.22;;;;;;;10.30;46.92;97186.59;5010811;28;20050;-63
2021/03/26 08:04:17;;;;;;;11.02;5.00;;;;;;;10.13;47.08;97192.66;5011706;28;20070;-64
2021/03/26 08:07:11;;;;;;;10.25;5.03;;;;;;;10.76;45.69;97179.34;5010746;28;20624;-63
2021/03/26 08:09:58;;;;;;;13.30;5.25;;;;;;;11.23;45.49;97185.03;5014027;28;20053;-64
2021/03/26 08:12:38;;;;;;;;;;;;;;;11.34;45.18;97187.31;5011514;28;20044;-64
2021/03/26 08:15:07;;;;;;;14.30;5.35;;;;;;;10.99;44.90;97184.81;5009337;28;19929;-63
2021/03/26 08:17:48;;;;;;;8.98;4.95;;;;;;;11.93;45.94;97185.41;5013848;28;20121;-64
2021/03/26 08:20:30;;;;;;;9.00;4.85;;;;;;;11.93;43.56;97177.59;5010995;28;20050;-65
2021/03/26 08:23:20;;;;;;;12.20;5.53;;;;;;;12.12;43.16;97183.44;5012975;28;20056;-64
2021/03/26 08:26:13;;;;;;;9.25;4.97;;;;;;;13.03;41.71;97179.56;5010884;28;20506;-64
2021/03/26 08:28:51;;;;;;;9.52;5.40;;;;;;;13.00;40.96;97178.09;5010799;28;20053;-64
2021/03/26 08:31:30;;;;;;;12.27;5.60;;;;;;;14.24;43.68;97181.47;5011521;28;20083;-65
2021/03/26 08:34:27;;;;;;;17.33;5.85;;;;;;;13.63;40.87;97178.06;5009189;28;20057;-64
2021/03/26 08:37:13;;;;;;;12.13;6.25;;;;;;;13.69;43.62;97173.94;5011573;28;20052;-64
2021/03/26 08:39:44;;;;;;;14.98;7.82;;;;;;;14.56;42.22;97170.81;5009691;28;20065;-64
2021/03/26 08:42:35;;;;;;;12.85;7.40;;;;;;;13.21;41.07;97176.69;5009482;28;20508;-64
2021/03/26 08:45:07;;;;;;;13.85;7.22;;;;;;;13.72;42.41;97178.81;5013769;28;20037;-63
2021/03/26 08:47:38;;;;;;;11.45;7.30;;;;;;;15.03;39.48;97178.28;5010054;28;20088;-63
2021/03/26 08:50:22;;;;;;;14.65;7.55;;;;;;;14.20;39.05;97188.06;5011548;28;20662;-64
2021/03/26 08:53:00;;;;;;;15.07;9.13;;;;;;;15.35;38.65;97178.03;5012071;28;20057;-64
2021/03/26 08:55:40;;;;;;;12.75;8.55;;;;;;;15.84;37.88;97180.72;5013444;28;20044;-64
2021/03/26 08:58:42;;;;;;;11.85;8.30;;;;;;;17.20;36.06;97177.69;5009678;28;20128;-64
2021/03/26 09:01:36;;;;;;;12.80;7.55;;;;;;;16.37;36.08;97175.06;5009445;28;20045;-64
2021/03/26 09:04:21;;;;;;;13.75;8.27;;;;;;;16.89;35.77;97173.75;5014381;28;20042;-64
2021/03/26 09:07:06;;;;;;;12.55;7.68;;;;;;;17.02;34.89;97172.19;5010826;28;20038;-64
2021/03/26 09:09:51;;;;;;;16.88;9.18;;;;;;;15.75;36.10;97173.19;5011897;28;20064;-64
2021/03/26 09:12:51;;;;;;;20.75;9.20;;;;;;;18.43;34.24;97182.63;5008286;28;20037;-64
2021/03/26 09:16:00;;;;;;;15.70;8.95;;;;;;;18.72;31.67;97177.91;5006732;28;20540;-64
2021/03/26 09:18:51;;;;;;;20.25;10.30;;;;;;;18.40;34.01;97175.16;5010211;28;20060;-63
2021/03/26 09:21:52;;;;;;;14.48;9.68;;;;;;;16.71;35.08;97162.09;5011686;28;20038;-64
2021/03/26 09:24:34;;;;;;;14.15;9.25;;;;;;;21.39;27.79;97162.50;5009687;28;20043;-64
2021/03/26 09:27:00;;;;;;;24.27;9.85;;;;;;;25.11;24.36;97167.13;5013397;28;20049;-64
2021/03/26 09:29:50;;;;;;;14.90;9.40;;;;;;;26.41;21.71;97158.09;5008573;28;20038;-65
2021/03/26 09:32:26;;;;;;;18.30;9.57;;;;;;;25.38;23.03;97137.84;5010882;28;20401;-65
2021/03/26 09:35:07;;;;;;;15.35;8.63;;;;;;;27.14;23.11;97149.38;5012444;28;20685;-65
2021/03/26 09:37:44;;;;;;;13.50;10.05;;;;;;;24.76;24.21;97149.69;5012555;28;20174;-63
2021/03/26 09:40:21;;;;;;;14.57;9.52;;;;;;;27.82;20.35;97143.88;5014858;28;20048;-65
2021/03/26 09:42:54;;;;;;;15.85;10.25;;;;;;;29.04;19.69;97146.53;5011948;28;20485;-64
2021/03/26 09:45:29;;;;;;;19.63;12.30;;;;;;;29.11;20.72;97136.34;5013333;28;20121;-64
2021/03/26 09:48:15;;;;;;;14.48;10.52;;;;;;;29.96;18.73;97145.16;5026354;28;20120;-64
2021/03/26 09:51:00;;;;;;;18.90;12.07;;;;;;;29.53;19.71;97136.91;5028917;28;20109;-64
2021/03/26 09:53:29;;;;;;;16.42;12.07;;;;;;;29.89;18.44;97139.31;5010936;28;20621;-66
2021/03/26 09:56:13;;;;;;;19.00;13.23;;;;;;;29.31;18.10;97130.06;5009952;28;20048;-63
2021/03/26 09:58:49;;;;;;;22.70;13.00;;;;;;;28.97;18.05;97140.69;5011503;28;20053;-65
2021/03/26 10:01:31;;;;;;;20.75;12.85;;;;;;;31.01;18.33;97130.09;5009227;28;20453;-65
2021/03/26 10:04:07;;;;;;;21.13;13.48;;;;;;;28.80;18.75;97136.47;5014128;28;20060;-64
2021/03/26 10:07:25;;;;;;;20.40;12.30;;;;;;;29.12;18.47;97131.78;5005961;28;20121;-65
2021/03/26 10:12:48;;;;;;;14.57;10.25;;;;;;;29.89;18.73;97123.19;5016197;28;20062;-65
2021/03/26 10:15:41;;;;;;;14.13;9.95;;;;;;;29.99;18.88;97129.31;5013799;28;20049;-64
2021/03/26 10:18:13;;;;;;;18.83;10.13;;;;;;;29.12;18.78;97123.75;5027195;28;20034;-64
2021/03/26 10:21:01;;;;;;;14.77;10.65;;;;;;;31.60;17.90;97125.22;5015636;28;20038;-64
2021/03/26 10:23:42;;;;;;;14.85;10.05;;;;;;;32.35;16.88;97119.91;5011127;28;20053;-65
2021/03/26 10:26:30;;;;;;;13.90;9.70;;;;;;;33.98;15.54;97114.72;5016275;28;20041;-65
2021/03/26 10:29:23;;;;;;;15.13;10.50;;;;;;;33.25;16.81;97120.22;5010959;28;20608;-65
2021/03/26 10:31:52;;;;;;;11.93;9.60;;;;;;;34.13;15.05;97114.34;5013214;28;20386;-64
2021/03/26 10:34:35;;;;;;;14.65;11.27;;;;;;;32.99;16.81;97109.97;5015308;28;20033;-64
2021/03/26 10:37:22;;;;;;;15.13;10.15;;;;;;;30.62;18.32;97104.19;5013525;28;20126;-64
2021/03/26 10:40:03;;;;;;;17.35;10.40;;;;;;;35.27;14.97;97101.94;5018576;28;20302;-64
2021/03/26 10:42:46;;;;;;;18.42;11.45;;;;;;;35.90;14.44;97093.44;5010782;28;20398;-63
2021/03/26 10:45:29;;;;;;;14.60;11.00;;;;;;;30.38;16.81;97096.16;5014757;28;20069;-64
2021/03/26 10:48:09;;;;;;;15.50;10.85;;;;;;;32.02;17.39;97088.44;5015068;28;20136;-64
2021/03/26 10:51:10;;;;;;;15.80;10.50;;;;;;;35.58;14.13;97079.28;5009545;28;20042;-64
2021/03/26 10:53:44;;;;;;;16.83;10.63;;;;;;;34.40;14.02;97077.44;5016128;28;20123;-64
2021/03/26 10:56:24;;;;;;;14.90;10.15;;;;;;;32.18;15.51;97078.19;5009836;28;20042;-64
2021/03/26 10:58:58;;;;;;;14.15;9.43;;;;;;;32.81;15.15;97065.13;5010144;28;20056;-64
2021/03/26 11:01:26;;;;;;;15.88;9.68;;;;;;;34.02;14.04;97070.59;5015360;28;20120;-64
2021/03/26 11:03:54;;;;;;;12.35;8.57;;;;;;;36.19;13.36;97061.00;5016534;28;20052;-64
2021/03/26 11:06:41;;;;;;;10.77;8.23;;;;;;;36.71;12.56;97068.09;5014133;28;20132;-63
2021/03/26 11:09:26;;;;;;;16.10;8.27;;;;;;;36.97;11.71;97059.75;5014579;28;20057;-64
2021/03/26 11:12:33;;;;;;;11.80;8.38;;;;;;;35.91;13.26;97063.31;5016138;28;20111;-64
2021/03/26 11:15:07;;;;;;;11.48;9.20;;;;;;;35.41;13.48;97055.75;5013289;28;20127;-63
2021/03/26 11:17:58;;;;;;;13.38;9.02;;;;;;;35.82;13.18;97049.81;5010108;28;20056;-62
2021/03/26 11:20:28;;;;;;;18.00;9.57;;;;;;;36.70;13.72;97044.78;5011462;28;20049;-64
2021/03/26 11:23:27;;;;;;;13.43;9.45;;;;;;;34.97;15.11;97055.78;5009948;28;20057;-65
2021/03/26 11:26:06;;;;;;;16.25;8.90;;;;;;;37.54;14.01;97043.94;5013501;28;20054;-65
2021/03/26 11:28:39;;;;;;;16.98;9.10;;;;;;;37.44;12.96;97045.94;5011644;28;20046;-65
2021/03/26 11:31:08;;;;;;;11.75;9.32;;;;;;;36.65;14.49;97043.06;5014462;28;20064;-64
2021/03/26 11:33:44;;;;;;;25.13;10.18;;;;;;;34.88;13.90;97057.66;5011712;28;20129;-63
2021/03/26 11:36:33;;;;;;;17.17;9.20;;;;;;;35.65;14.29;97060.69;5008776;28;20037;-65
2021/03/26 11:39:11;;;;;;;12.13;8.50;;;;;;;36.10;12.98;97052.09;5014486;28;20514;-64
2021/03/26 11:41:49;;;;;;;12.35;9.05;;;;;;;35.07;13.34;97050.06;5011611;28;20046;-63
2021/03/26 11:44:19;;;;;;;13.02;8.55;;;;;;;36.62;12.83;97032.91;5012498;28;20046;-65
2021/03/26 11:46:51;;;;;;;11.98;7.78;;;;;;;36.73;12.56;97033.28;5011649;28;20053;-64
2021/03/26 11:49:20;;;;;;;12.48;8.00;;;;;;;36.81;13.29;97028.91;5009024;28;20634;-63
2021/03/26 11:52:16;;;;;;;10.95;7.82;;;;;;;36.22;14.26;97019.72;5009359;28;20053;-64
2021/03/26 11:54:48;;;;;;;12.77;8.05;;;;;;;37.37;14.05;97007.69;5013549;28;20050;-64
2021/03/26 11:57:31;;;;;;;16.10;8.30;;;;;;;30.66;17.03;97009.63;5013503;28;20764;-65
2021/03/26 12:00:11;;;;;;;12.57;9.30;;;;;;;31.72;15.75;97000.97;5010796;28;20041;-64
2021/03/26 12:02:48;;;;;;;15.27;9.45;;;;;;;34.44;14.79;96992.72;5014783;28;20046;-64
2021/03/26 12:05:27;;;;;;;14.40;8.27;;;;;;;37.18;12.07;96993.84;5003325;28;20058;-63
2021/03/26 12:08:53;;;;;;;20.20;8.68;;;;;;;33.62;13.82;96983.38;5004769;28;20108;-65
2021/03/26 12:11:31;;;;;;;35.25;9.43;;;;;;;35.66;13.09;96975.63;5011221;28;20043;-64
2021/03/26 12:14:07;;;;;;;13.38;8.88;;;;;;;36.92;12.80;96973.16;5009494;28;20046;-63
2021/03/26 12:16:42;;;;;;;15.27;8.30;;;;;;;36.63;12.26;96966.69;5013605;28;20062;-62
2021/03/26 12:19:17;;;;;;;101.28;12.55;;;;;;;37.82;11.23;96968.88;5011049;28;20053;-63
2021/03/26 12:22:01;;;;;;;14.85;8.90;;;;;;;36.60;12.62;96959.19;5013822;28;20064;-62
2021/03/26 12:24:48;;;;;;;17.38;9.23;;;;;;;38.27;12.12;96959.81;5009036;28;20041;-61
2021/03/26 12:27:36;;;;;;;12.50;8.10;;;;;;;39.65;11.34;96959.75;5008085;28;20080;-64
2021/03/26 12:30:13;;;;;;;12.20;7.78;;;;;;;36.66;12.29;96952.47;5014051;28;20489;-62
2021/03/26 12:33:00;;;;;;;11.57;7.88;;;;;;;36.29;13.61;96948.72;5008180;28;20033;-63
2021/03/26 12:35:42;;;;;;;38.90;10.27;;;;;;;36.46;12.12;96942.41;5010473;28;20072;-63
2021/03/26 12:38:38;;;;;;;18.70;8.65;;;;;;;38.96;10.86;96946.28;5011615;28;20045;-63
2021/03/26 12:41:12;;;;;;;19.50;7.72;;;;;;;39.93;10.49;96937.06;5010165;28;20693;-64
2021/03/26 12:43:59;;;;;;;12.75;7.93;;;;;;;36.37;12.54;96934.34;5007601;28;20046;-63
2021/03/26 12:46:47;;;;;;;11.25;8.55;;;;;;;39.28;10.14;96938.16;5011540;28;20046;-64
2021/03/26 12:49:23;;;;;;;21.30;8.00;;;;;;;37.93;11.66;96924.94;5012017;28;20052;-63